Time;durP1;ratioP1;P1;durP2;ratioP2;P2;SDS_P1;SDS_P2;PMS_P1;PMS_P2;Temp;Humidity;BMP_temperature;BMP_pressure;BME280_temperature;BME280_humidity;BME280_pressure;Samples;Min_cycle;Max_cycle;Signal;HPM_P1;HPM_P2
2022/07/18 00:01:52;;;;;;;18.17;9.30;;;;;;;29.51;73.60;100643.97;5024416;28;65206;-38
2022/07/18 00:04:24;;;;;;;16.80;9.27;;;;;;;29.56;73.17;100641.41;4959287;28;69826;-36
2022/07/18 00:06:55;;;;;;;18.40;9.38;;;;;;;29.52;73.73;100624.00;4959188;28;66137;-36
2022/07/18 00:09:26;;;;;;;17.40;9.13;;;;;;;29.69;74.98;100641.38;4959850;28;69534;-38
2022/07/18 00:12:06;;;;;;;16.33;8.88;;;;;;;29.75;74.43;100637.78;4977490;28;66531;-35
2022/07/18 00:14:38;;;;;;;13.25;9.65;;;;;;;29.74;75.29;100638.84;4980094;28;69563;-36
2022/07/18 00:17:10;;;;;;;16.42;9.88;;;;;;;29.74;75.44;100638.03;4960432;28;66528;-36
2022/07/18 00:19:41;;;;;;;15.63;9.37;;;;;;;29.75;75.79;100639.69;4958341;28;70077;-37
2022/07/18 00:22:12;;;;;;;14.93;9.88;;;;;;;29.76;75.94;100646.75;5023552;28;66109;-35
2022/07/18 00:24:43;;;;;;;16.25;10.52;;;;;;;29.82;76.38;100638.59;4957867;28;70465;-36
2022/07/18 00:27:13;;;;;;;22.70;9.85;;;;;;;29.87;75.72;100646.06;4958450;28;67723;-37
2022/07/18 00:29:44;;;;;;;10.60;8.63;;;;;;;29.99;72.95;100651.56;5018208;28;70316;-37
2022/07/18 00:32:15;;;;;;;13.02;7.47;;;;;;;30.03;71.29;100653.63;5009958;28;64014;-36
2022/07/18 00:34:46;;;;;;;11.38;7.13;;;;;;;30.07;70.71;100643.19;4955791;28;69295;-37
2022/07/18 00:37:17;;;;;;;7.72;6.97;;;;;;;30.17;69.96;100646.25;4947442;28;66788;-38
2022/07/18 00:39:48;;;;;;;9.05;6.78;;;;;;;30.23;70.02;100642.69;4957510;28;69181;-35
2022/07/18 00:42:21;;;;;;;8.52;6.22;;;;;;;30.28;69.30;100639.28;4959122;28;65850;-37
2022/07/18 00:44:56;;;;;;;6.85;5.97;;;;;;;30.33;69.83;100646.75;4957542;28;69433;-37
2022/07/18 00:47:27;;;;;;;9.93;6.28;;;;;;;30.30;69.38;100633.66;4957918;28;65509;-38
2022/07/18 00:49:58;;;;;;;9.18;6.32;;;;;;;30.40;69.06;100637.53;4959330;28;70426;-36
2022/07/18 00:52:29;;;;;;;6.83;5.90;;;;;;;30.46;68.35;100646.63;4951794;28;65735;-36
2022/07/18 00:55:00;;;;;;;7.00;6.00;;;;;;;30.50;68.25;100656.75;4954794;28;69581;-37
2022/07/18 00:57:32;;;;;;;6.97;6.07;;;;;;;30.53;68.61;100646.56;4951967;28;64737;-36
2022/07/18 01:02:56;;;;;;;7.03;6.25;;;;;;;30.60;68.36;100661.69;4940550;28;66585;-36
2022/07/18 01:05:27;;;;;;;9.20;5.88;;;;;;;30.62;68.16;100656.88;4939401;28;70057;-36
2022/07/18 01:07:58;;;;;;;8.55;6.07;;;;;;;30.65;67.46;100667.25;4953467;28;66025;-37
2022/07/18 01:10:29;;;;;;;6.80;6.20;;;;;;;30.70;67.24;100661.16;4947879;28;69232;-38
2022/07/18 01:13:01;;;;;;;6.55;5.95;;;;;;;30.73;67.58;100658.84;4957556;28;67867;-37
2022/07/18 01:15:32;;;;;;;6.90;5.88;;;;;;;30.74;67.54;100670.50;5009255;28;68905;-39
2022/07/18 01:18:03;;;;;;;11.27;5.70;;;;;;;30.77;66.88;100669.22;4958877;28;66553;-37
2022/07/18 01:20:35;;;;;;;7.32;6.15;;;;;;;30.72;66.97;100657.16;5023157;28;70436;-37
2022/07/18 01:23:06;;;;;;;9.35;6.55;;;;;;;30.81;66.84;100671.25;4954565;28;65770;-37
2022/07/18 01:25:37;;;;;;;7.40;6.10;;;;;;;30.86;66.30;100667.91;4952488;28;69318;-37
2022/07/18 01:28:08;;;;;;;7.00;5.80;;;;;;;30.87;66.71;100675.81;4952969;28;65173;-36
2022/07/18 01:30:39;;;;;;;6.95;6.30;;;;;;;30.90;66.45;100674.53;4943418;28;69499;-37
2022/07/18 01:33:10;;;;;;;6.70;6.20;;;;;;;30.91;66.05;100687.84;4948646;28;67132;-37
2022/07/18 01:35:41;;;;;;;6.50;6.00;;;;;;;30.94;66.51;100681.13;4959043;28;69986;-37
2022/07/18 01:38:12;;;;;;;7.28;5.70;;;;;;;30.97;66.25;100683.41;4942661;28;66700;-37
2022/07/18 01:40:43;;;;;;;6.53;6.03;;;;;;;30.98;65.77;100685.06;4954799;28;68741;-38
2022/07/18 01:43:14;;;;;;;6.40;5.77;;;;;;;31.00;66.21;100682.94;4950631;28;66109;-38
2022/07/18 01:45:45;;;;;;;6.43;5.82;;;;;;;31.03;65.57;100698.75;4956485;28;69393;-37
2022/07/18 01:48:16;;;;;;;6.75;5.57;;;;;;;31.05;65.80;100688.50;4945849;28;65852;-38
2022/07/18 01:50:47;;;;;;;5.67;5.10;;;;;;;31.07;65.52;100705.38;4951078;28;71190;-38
2022/07/18 01:53:18;;;;;;;7.25;5.85;;;;;;;31.08;65.46;100704.31;5024618;28;65248;-36
2022/07/18 01:55:49;;;;;;;6.75;5.90;;;;;;;31.12;65.30;100712.81;4956427;28;70243;-37
2022/07/18 01:58:20;;;;;;;6.03;5.43;;;;;;;31.15;64.90;100715.09;5021774;28;65840;-38
2022/07/18 02:00:51;;;;;;;7.63;5.22;;;;;;;31.13;64.91;100712.59;4947941;28;70374;-38
2022/07/18 02:03:22;;;;;;;8.13;5.20;;;;;;;31.17;64.81;100718.38;5017999;28;66528;-39
2022/07/18 02:05:53;;;;;;;6.95;4.93;;;;;;;31.22;64.85;100726.66;4948288;28;69981;-38
2022/07/18 02:08:24;;;;;;;6.75;5.75;;;;;;;31.26;64.78;100727.03;4957933;28;66269;-37
2022/07/18 02:10:55;;;;;;;5.22;4.82;;;;;;;31.26;64.79;100724.31;4952862;28;70587;-39
2022/07/18 02:13:26;;;;;;;5.40;5.00;;;;;;;31.31;64.44;100735.31;4954460;28;66439;-38
2022/07/18 02:15:57;;;;;;;5.75;5.25;;;;;;;31.32;64.70;100731.56;4957472;28;71752;-37
2022/07/18 02:18:31;;;;;;;6.78;4.57;;;;;;;31.36;64.29;100739.03;4957453;28;67058;-38
2022/07/18 02:21:10;;;;;;;10.40;4.55;;;;;;;31.27;64.44;100720.56;5019357;28;69396;-37
2022/07/18 02:23:42;;;;;;;5.57;5.00;;;;;;;31.39;64.39;100730.44;4937697;28;65438;-36
2022/07/18 02:26:13;;;;;;;5.25;4.85;;;;;;;31.44;64.08;100735.19;4943705;28;70342;-38
2022/07/18 02:28:45;;;;;;;6.40;4.20;;;;;;;31.45;64.13;100726.00;5017417;28;66159;-39
2022/07/18 02:31:16;;;;;;;5.30;4.40;;;;;;;31.37;63.98;100719.03;4957516;28;70744;-37
2022/07/18 02:33:47;;;;;;;8.83;4.47;;;;;;;31.50;64.23;100734.28;5021974;28;65576;-39
2022/07/18 02:36:18;;;;;;;4.30;3.90;;;;;;;31.52;63.93;100734.06;4959758;28;70099;-37
2022/07/18 02:38:49;;;;;;;5.47;4.35;;;;;;;31.55;64.07;100726.28;4960794;28;66220;-37
2022/07/18 02:41:19;;;;;;;4.80;4.40;;;;;;;31.59;63.69;100726.66;4960599;28;69376;-38
2022/07/18 02:43:50;;;;;;;5.93;4.13;;;;;;;31.61;63.79;100724.53;4959680;28;66247;-37
2022/07/18 02:46:21;;;;;;;4.45;4.05;;;;;;;31.64;63.45;100728.69;4960494;28;70331;-36
2022/07/18 02:48:53;;;;;;;6.97;4.68;;;;;;;31.49;63.64;100702.81;4951345;28;66041;-36
2022/07/18 02:51:24;;;;;;;5.05;4.18;;;;;;;31.66;63.40;100723.88;4959455;28;69442;-36
2022/07/18 02:53:55;;;;;;;4.85;3.53;;;;;;;31.68;63.46;100710.88;4961278;28;65653;-38
2022/07/18 02:56:27;;;;;;;4.38;3.45;;;;;;;31.71;63.28;100727.53;4960640;28;69208;-37
2022/07/18 02:58:58;;;;;;;4.30;3.70;;;;;;;31.74;63.39;100718.13;4947453;28;66021;-39
2022/07/18 03:01:28;;;;;;;4.78;3.58;;;;;;;31.77;63.21;100713.06;4959177;28;70315;-38
2022/07/18 03:04:02;;;;;;;4.68;3.42;;;;;;;31.78;63.20;100719.31;5013668;28;67365;-38
2022/07/18 03:06:33;;;;;;;5.65;3.70;;;;;;;31.83;63.47;100705.88;4959743;28;70067;-38
2022/07/18 03:09:04;;;;;;;3.88;3.10;;;;;;;31.85;62.90;100709.19;4961412;28;66402;-39
2022/07/18 03:11:35;;;;;;;4.45;3.17;;;;;;;31.86;62.77;100700.00;4959931;28;69325;-37
2022/07/18 03:14:06;;;;;;;4.20;3.20;;;;;;;31.87;63.05;100701.63;5023834;28;66212;-37
2022/07/18 03:16:37;;;;;;;3.47;3.05;;;;;;;31.90;62.75;100698.47;4960041;28;69089;-38
2022/07/18 03:19:09;;;;;;;3.50;3.20;;;;;;;31.92;62.44;100693.66;4957483;28;66053;-38
2022/07/18 03:21:39;;;;;;;5.53;3.67;;;;;;;31.95;62.57;100690.47;4959835;28;70281;-37
2022/07/18 03:24:10;;;;;;;5.53;3.47;;;;;;;31.99;62.66;100690.88;4959586;28;66536;-38
2022/07/18 03:26:42;;;;;;;4.17;2.90;;;;;;;31.99;62.36;100678.13;4960431;28;69825;-38
2022/07/18 03:29:13;;;;;;;4.15;3.42;;;;;;;32.00;62.34;100679.75;4959011;28;65938;-37
2022/07/18 03:31:44;;;;;;;3.83;3.47;;;;;;;31.91;62.46;100654.03;5007570;28;70159;-37
2022/07/18 03:34:16;;;;;;;5.03;3.30;;;;;;;32.03;62.25;100665.72;4955986;28;66999;-38
2022/07/18 03:36:47;;;;;;;6.80;3.28;;;;;;;32.05;62.45;100665.50;4960526;28;69781;-41
2022/07/18 03:39:17;;;;;;;3.38;3.03;;;;;;;32.05;62.46;100660.91;4959316;28;66272;-39
2022/07/18 03:41:48;;;;;;;4.82;3.17;;;;;;;32.10;62.01;100667.53;4952534;28;69729;-38
2022/07/18 03:44:20;;;;;;;4.00;3.07;;;;;;;32.11;62.42;100661.03;4960036;28;65448;-37
2022/07/18 03:46:53;;;;;;;4.72;3.00;;;;;;;32.11;62.05;100655.59;4954025;28;70076;-37
2022/07/18 03:49:25;;;;;;;5.68;3.50;;;;;;;32.15;62.04;100654.06;4960476;28;65737;-38
2022/07/18 03:51:56;;;;;;;3.30;3.00;;;;;;;32.13;61.95;100648.06;4959273;28;69856;-38
2022/07/18 03:54:26;;;;;;;3.65;3.35;;;;;;;32.12;62.13;100654.53;4958578;28;66077;-38
2022/07/18 03:56:58;;;;;;;4.53;2.93;;;;;;;32.17;61.96;100651.94;5025713;28;69337;-37
2022/07/18 03:59:29;;;;;;;3.40;2.92;;;;;;;32.13;61.74;100634.50;4959601;28;65492;-39
2022/07/18 04:01:59;;;;;;;3.28;2.97;;;;;;;32.18;61.87;100634.59;4957848;28;70338;-38
2022/07/18 04:04:30;;;;;;;7.07;3.10;;;;;;;32.25;61.66;100638.84;4960964;28;66406;-38
2022/07/18 04:07:03;;;;;;;3.85;3.20;;;;;;;32.17;61.94;100630.25;4959313;28;71576;-37
2022/07/18 04:09:34;;;;;;;3.15;2.85;;;;;;;32.27;62.00;100646.78;4958980;28;66393;-38
2022/07/18 04:12:05;;;;;;;3.53;3.03;;;;;;;32.28;61.77;100649.25;5009593;28;70897;-41
2022/07/18 04:14:36;;;;;;;4.57;3.22;;;;;;;32.21;61.80;100631.44;4957735;28;65450;-38
2022/07/18 04:17:07;;;;;;;4.40;3.33;;;;;;;32.29;61.45;100644.66;4959365;28;69556;-37
2022/07/18 04:19:38;;;;;;;7.07;2.63;;;;;;;32.32;61.59;100638.75;4960801;28;64713;-37
2022/07/18 04:22:09;;;;;;;6.45;3.55;;;;;;;32.32;61.50;100644.19;4959356;28;69303;-38
2022/07/18 04:24:40;;;;;;;5.47;3.10;;;;;;;32.37;61.82;100640.75;4957130;28;65732;-38
2022/07/18 04:27:12;;;;;;;4.00;3.10;;;;;;;32.36;61.65;100634.50;4958422;28;70684;-38
2022/07/18 04:29:43;;;;;;;5.32;3.03;;;;;;;32.38;61.35;100643.25;4957859;28;66281;-40
2022/07/18 04:32:14;;;;;;;5.75;3.10;;;;;;;32.40;61.25;100641.13;4959027;28;69262;-38
2022/07/18 04:34:45;;;;;;;6.67;3.70;;;;;;;32.40;61.24;100641.13;4959172;28;65152;-37
2022/07/18 04:37:16;;;;;;;6.07;3.40;;;;;;;32.44;61.19;100642.28;4957542;28;70314;-38
2022/07/18 04:39:47;;;;;;;5.10;3.63;;;;;;;32.44;61.06;100631.44;4956600;28;65616;-45
2022/07/18 04:42:18;;;;;;;4.68;3.30;;;;;;;32.38;61.42;100621.53;4949500;28;70166;-38
2022/07/18 04:44:48;;;;;;;6.10;3.10;;;;;;;32.52;61.23;100633.00;4959334;28;66530;-38
2022/07/18 04:47:20;;;;;;;5.35;2.97;;;;;;;32.52;61.27;100626.75;5022370;28;70099;-40
2022/07/18 04:49:57;;;;;;;4.63;3.33;;;;;;;32.44;61.06;100609.72;4960229;28;66715;-37
2022/07/18 04:52:36;;;;;;;3.53;3.00;;;;;;;32.30;60.63;100593.91;4959018;28;70871;-38
2022/07/18 04:55:09;;;;;;;4.75;3.15;;;;;;;32.59;60.88;100622.81;4959979;28;66743;-37
2022/07/18 04:57:41;;;;;;;3.17;2.72;;;;;;;32.61;60.96;100625.31;4958197;28;70392;-37
2022/07/18 05:00:16;;;;;;;4.88;3.08;;;;;;;32.13;60.66;100525.97;4940518;28;65746;-38
2022/07/18 05:02:49;;;;;;;7.85;3.35;;;;;;;32.37;60.81;100570.16;4951165;28;70270;-38
2022/07/18 05:05:21;;;;;;;4.82;2.95;;;;;;;32.66;60.56;100606.41;4958141;28;66686;-37
2022/07/18 05:07:52;;;;;;;3.92;2.95;;;;;;;32.61;60.66;100587.28;4959481;28;69382;-38
2022/07/18 05:10:24;;;;;;;7.35;2.55;;;;;;;32.68;60.78;100604.25;4954615;28;65755;-37
2022/07/18 05:12:55;;;;;;;;;;;;;;;32.36;61.39;100607.34;4953253;28;69487;-38
2022/07/18 05:15:26;;;;;;;3.00;2.67;;;;;;;32.69;60.62;100604.03;4960220;28;66102;-39
2022/07/18 05:17:57;;;;;;;3.03;2.75;;;;;;;32.60;60.66;100575.59;4954895;28;68882;-38
2022/07/18 05:20:28;;;;;;;3.63;3.03;;;;;;;32.71;60.54;100587.50;5024745;28;65944;-38
2022/07/18 05:22:59;;;;;;;2.67;2.35;;;;;;;32.76;60.19;100592.19;4957930;28;69668;-38
2022/07/18 05:25:30;;;;;;;3.45;2.58;;;;;;;32.75;60.38;100588.66;4956745;28;65793;-39
2022/07/18 05:28:01;;;;;;;3.05;2.20;;;;;;;32.75;60.45;100583.25;4958169;28;70397;-36
2022/07/18 05:30:32;;;;;;;5.60;2.67;;;;;;;32.72;60.44;100579.09;4958468;28;65315;-38
2022/07/18 05:33:03;;;;;;;4.65;2.90;;;;;;;32.81;60.18;100581.44;4958284;28;70511;-37
2022/07/18 05:35:34;;;;;;;7.47;2.38;;;;;;;32.81;60.48;100576.84;4958779;28;65969;-39
2022/07/18 05:38:05;;;;;;;3.83;2.70;;;;;;;32.83;60.56;100573.91;4959275;28;70004;-38
2022/07/18 05:40:36;;;;;;;4.65;2.45;;;;;;;32.86;60.01;100573.41;4958152;28;66341;-38
2022/07/18 05:43:07;;;;;;;4.70;2.42;;;;;;;32.88;60.03;100580.25;5018167;28;70293;-38
2022/07/18 05:45:38;;;;;;;2.80;2.47;;;;;;;32.90;60.23;100575.41;4959606;28;66702;-37
2022/07/18 05:48:09;;;;;;;2.87;2.50;;;;;;;32.85;60.25;100559.00;4950753;28;70404;-37
2022/07/18 05:50:40;;;;;;;3.93;2.70;;;;;;;32.86;59.90;100551.69;4958941;28;67673;-37
2022/07/18 05:53:11;;;;;;;2.20;2.00;;;;;;;32.87;59.89;100551.41;5009960;28;70272;-37
2022/07/18 05:55:42;;;;;;;7.90;2.30;;;;;;;32.94;60.00;100559.44;4947125;28;65700;-39
2022/07/18 05:58:13;;;;;;;9.32;2.67;;;;;;;32.95;59.70;100550.22;4945343;28;69480;-37
2022/07/18 06:00:43;;;;;;;3.53;2.33;;;;;;;32.96;59.75;100551.03;4957737;28;65995;-38
2022/07/18 06:03:14;;;;;;;2.13;1.90;;;;;;;33.04;59.81;100539.81;4957534;28;69365;-38
2022/07/18 06:05:45;;;;;;;4.33;2.67;;;;;;;33.03;60.04;100546.31;4957658;28;64953;-37
2022/07/18 06:08:17;;;;;;;2.90;2.33;;;;;;;32.95;59.82;100517.59;4956602;28;71456;-39
2022/07/18 06:10:47;;;;;;;2.80;2.38;;;;;;;33.08;59.81;100538.28;4958769;28;65877;-37
2022/07/18 06:13:18;;;;;;;6.18;3.05;;;;;;;33.08;60.00;100532.84;4956701;28;70148;-38
2022/07/18 06:15:49;;;;;;;7.72;2.42;;;;;;;33.12;59.71;100528.53;4960129;28;65771;-37
2022/07/18 06:18:20;;;;;;;10.37;2.60;;;;;;;32.92;59.15;100491.75;4960022;28;69608;-38
2022/07/18 06:20:52;;;;;;;2.70;2.28;;;;;;;33.22;59.85;100517.88;5041725;28;65797;-38
2022/07/18 06:23:23;;;;;;;4.50;2.72;;;;;;;33.25;59.54;100511.94;4961308;28;69531;-38
2022/07/18 06:25:54;;;;;;;3.90;2.78;;;;;;;33.24;59.75;100499.44;4959220;28;65958;-37
2022/07/18 06:28:34;;;;;;;3.45;2.25;;;;;;;33.16;59.40;100494.38;4959397;28;69552;-39
2022/07/18 06:31:05;;;;;;;7.10;2.38;;;;;;;33.35;59.05;100503.16;5024307;28;65244;-38
2022/07/18 06:33:36;;;;;;;5.80;2.07;;;;;;;33.22;59.28;100474.38;4958536;28;70117;-38
2022/07/18 06:36:07;;;;;;;3.28;2.55;;;;;;;33.42;59.31;100494.81;4958746;28;66696;-38
2022/07/18 06:38:39;;;;;;;2.75;2.15;;;;;;;33.00;59.24;100413.66;4960568;28;71272;-37
2022/07/18 06:41:10;;;;;;;2.53;2.30;;;;;;;33.49;58.81;100479.16;5023851;28;67058;-37
2022/07/18 06:43:42;;;;;;;4.70;2.60;;;;;;;33.50;59.02;100486.25;4959304;28;71441;-38
2022/07/18 06:46:12;;;;;;;5.18;1.98;;;;;;;33.46;59.16;100469.63;5028109;28;66160;-39
2022/07/18 06:48:43;;;;;;;2.33;2.00;;;;;;;33.54;58.90;100461.06;5022157;28;69831;-38
2022/07/18 06:51:14;;;;;;;2.67;2.00;;;;;;;33.49;58.82;100451.94;5020827;28;65918;-39
2022/07/18 06:53:45;;;;;;;3.47;1.92;;;;;;;33.51;58.57;100447.09;4960632;28;69942;-39
2022/07/18 06:56:17;;;;;;;5.15;2.25;;;;;;;33.58;58.71;100461.41;4960398;28;66140;-39
2022/07/18 06:58:51;;;;;;;3.83;2.28;;;;;;;33.66;58.65;100458.25;4959941;28;69966;-39
2022/07/18 07:01:22;;;;;;;5.32;2.33;;;;;;;33.71;58.48;100455.63;4960860;28;66552;-39
2022/07/18 07:03:53;;;;;;;;;;;;;;;33.45;59.16;100448.09;4959346;28;69799;-39
2022/07/18 07:06:24;;;;;;;4.18;2.10;;;;;;;33.67;58.47;100432.69;4959669;28;66573;-39
2022/07/18 07:08:55;;;;;;;8.73;2.40;;;;;;;33.79;58.35;100436.16;4960425;28;69790;-42
2022/07/18 07:11:26;;;;;;;3.47;2.17;;;;;;;33.53;58.28;100393.31;4956511;28;66717;-42
2022/07/18 07:13:57;;;;;;;3.00;1.67;;;;;;;33.88;58.67;100449.28;4959877;28;70110;-39
2022/07/18 07:16:28;;;;;;;2.90;2.00;;;;;;;33.90;58.37;100434.34;4958792;28;66272;-37
2022/07/18 07:18:59;;;;;;;2.77;2.07;;;;;;;33.67;58.24;100393.78;4962166;28;71921;-39
2022/07/18 07:21:30;;;;;;;4.13;1.67;;;;;;;33.97;58.12;100435.00;4960346;28;67677;-39
2022/07/18 07:24:02;;;;;;;3.35;2.13;;;;;;;34.00;58.05;100433.69;4958367;28;70060;-39
2022/07/18 07:26:33;;;;;;;4.93;2.47;;;;;;;33.99;57.97;100424.69;4957466;28;67735;-39
2022/07/18 07:29:04;;;;;;;3.20;2.33;;;;;;;33.94;57.72;100404.78;4967081;28;71626;-39
2022/07/18 07:31:34;;;;;;;3.37;1.93;;;;;;;34.02;57.83;100417.94;4958895;28;66191;-38
2022/07/18 07:34:05;;;;;;;3.80;2.30;;;;;;;34.03;58.05;100411.41;4958961;28;70165;-38
2022/07/18 07:36:36;;;;;;;2.50;2.00;;;;;;;34.07;57.84;100415.28;4960098;28;66482;-38
2022/07/18 07:39:07;;;;;;;7.25;2.30;;;;;;;34.14;57.94;100418.66;4958916;28;70045;-38
2022/07/18 07:41:38;;;;;;;7.20;2.33;;;;;;;34.15;57.93;100417.56;4960002;28;66279;-39
2022/07/18 07:44:09;;;;;;;4.43;2.28;;;;;;;34.16;57.75;100408.34;4958953;28;70255;-37
2022/07/18 07:46:41;;;;;;;3.47;2.63;;;;;;;34.19;57.76;100410.56;4960237;28;66731;-39
2022/07/18 07:49:12;;;;;;;3.90;2.30;;;;;;;34.19;57.64;100394.22;4962246;28;69913;-39
2022/07/18 07:51:43;;;;;;;8.85;2.45;;;;;;;34.22;57.89;100407.31;4945719;28;65257;-38
2022/07/18 07:54:14;;;;;;;4.40;2.85;;;;;;;34.24;57.60;100394.28;4953169;28;70297;-37
2022/07/18 07:56:46;;;;;;;3.60;2.40;;;;;;;34.19;57.69;100380.59;5022711;28;65634;-38
2022/07/18 07:59:17;;;;;;;2.93;2.40;;;;;;;34.23;57.56;100386.34;5025769;28;69269;-38
2022/07/18 08:01:48;;;;;;;;;;;;;;;34.01;58.39;100398.03;4958969;28;66829;-37
2022/07/18 08:04:19;;;;;;;6.90;2.90;;;;;;;34.30;57.81;100380.69;4959229;28;70467;-38
2022/07/18 08:06:49;;;;;;;5.43;2.45;;;;;;;34.32;57.69;100384.81;5025515;28;65904;-37
2022/07/18 08:09:20;;;;;;;3.10;2.37;;;;;;;34.34;57.55;100376.41;4961247;28;70189;-39
2022/07/18 08:11:52;;;;;;;3.20;2.60;;;;;;;34.33;57.53;100363.88;4962031;28;66375;-38
2022/07/18 08:14:23;;;;;;;2.53;2.27;;;;;;;34.35;57.32;100357.09;5025581;28;69806;-38
2022/07/18 08:16:54;;;;;;;7.40;2.65;;;;;;;34.33;57.15;100353.81;4956140;28;66243;-39
2022/07/18 08:19:25;;;;;;;7.65;2.47;;;;;;;34.37;57.51;100359.56;4954910;28;70237;-37
2022/07/18 08:21:56;;;;;;;4.93;2.85;;;;;;;34.38;57.33;100355.75;4956344;28;65148;-38
2022/07/18 08:24:27;;;;;;;3.40;2.83;;;;;;;34.31;57.27;100339.63;4955053;28;70114;-38
2022/07/18 08:26:58;;;;;;;6.07;2.87;;;;;;;34.39;57.00;100360.13;4958840;28;65797;-38
2022/07/18 08:29:29;;;;;;;2.53;2.33;;;;;;;34.40;57.41;100359.03;4951576;28;70047;-38
2022/07/18 08:32:19;;;;;;;2.92;2.60;;;;;;;34.42;57.38;100356.88;4954208;28;66289;-36
2022/07/18 08:34:52;;;;;;;4.22;3.10;;;;;;;34.40;57.46;100353.59;4952708;28;69123;-39
2022/07/18 08:37:24;;;;;;;7.20;3.17;;;;;;;34.40;57.26;100359.03;4958635;28;66386;-38
2022/07/18 08:39:55;;;;;;;3.70;3.40;;;;;;;34.41;57.44;100344.38;4959292;28;70435;-40
2022/07/18 08:42:27;;;;;;;4.38;3.38;;;;;;;34.02;57.02;100284.59;4958846;28;65882;-39
2022/07/18 08:44:58;;;;;;;3.42;3.22;;;;;;;34.44;56.95;100349.28;4959446;28;70010;-39
2022/07/18 08:47:31;;;;;;;6.30;4.25;;;;;;;34.06;57.14;100299.34;4947786;28;65688;-37
2022/07/18 08:50:02;;;;;;;4.00;3.33;;;;;;;34.43;57.35;100363.97;4958793;28;70805;-39
2022/07/18 08:52:35;;;;;;;3.97;3.57;;;;;;;34.42;57.43;100351.44;4960346;28;66411;-39
2022/07/18 08:55:22;;;;;;;3.28;3.00;;;;;;;34.43;57.20;100347.63;4959845;28;69468;-38
2022/07/18 08:57:54;;;;;;;3.58;3.00;;;;;;;34.43;57.16;100342.19;4960318;28;65595;-39
2022/07/18 09:00:25;;;;;;;3.75;3.45;;;;;;;34.41;57.58;100360.69;5021448;28;70452;-38
2022/07/18 09:03:00;;;;;;;5.38;3.40;;;;;;;34.41;57.63;100360.69;4958341;28;66008;-39
2022/07/18 09:05:32;;;;;;;5.88;3.63;;;;;;;34.43;57.50;100359.34;4958097;28;69165;-39
2022/07/18 09:08:11;;;;;;;4.50;3.47;;;;;;;34.41;57.66;100352.53;4953454;28;66655;-39
2022/07/18 09:11:02;;;;;;;4.70;4.30;;;;;;;33.91;57.57;100280.13;4957666;28;70759;-39
2022/07/18 09:13:38;;;;;;;3.97;3.55;;;;;;;34.39;57.61;100351.97;4949361;28;65980;-39
2022/07/18 09:16:12;;;;;;;5.15;3.78;;;;;;;33.99;57.59;100266.88;4954558;28;69359;-38
2022/07/18 09:18:46;;;;;;;5.72;4.28;;;;;;;34.22;57.37;100305.78;4957809;28;65608;-38
2022/07/18 09:21:20;;;;;;;4.45;4.05;;;;;;;33.63;57.50;100213.13;4958468;28;69078;-39
2022/07/18 09:23:54;;;;;;;8.55;4.55;;;;;;;33.87;57.99;100247.13;4958938;28;65695;-38
2022/07/18 09:26:41;;;;;;;5.85;4.53;;;;;;;34.32;58.13;100330.34;5022786;28;69194;-37
2022/07/18 09:29:17;;;;;;;5.45;4.68;;;;;;;34.22;57.68;100300.34;4957295;28;65948;-39
2022/07/18 09:31:56;;;;;;;5.28;4.70;;;;;;;34.37;57.77;100332.31;4955928;28;70195;-37
2022/07/18 09:34:35;;;;;;;7.57;4.30;;;;;;;34.25;58.04;100327.84;4957060;28;67282;-38
2022/07/18 09:37:16;;;;;;;6.78;5.05;;;;;;;34.30;58.38;100337.13;4956125;28;69151;-37
2022/07/18 09:39:47;;;;;;;7.50;4.93;;;;;;;34.35;58.46;100340.75;4958998;28;65801;-38
2022/07/18 09:42:19;;;;;;;5.35;4.85;;;;;;;34.35;58.34;100348.09;4959073;28;70198;-38
2022/07/18 09:44:59;;;;;;;7.18;5.40;;;;;;;34.29;58.51;100340.94;4959634;28;66625;-38
2022/07/18 09:47:30;;;;;;;7.15;5.25;;;;;;;34.31;58.60;100338.81;4960943;28;69838;-38
2022/07/18 09:50:01;;;;;;;11.00;5.43;;;;;;;34.31;58.42;100338.81;4961402;28;66338;-37
2022/07/18 09:52:32;;;;;;;10.63;5.57;;;;;;;34.29;58.78;100338.22;4961507;28;70271;-37
2022/07/18 09:55:07;;;;;;;5.95;5.43;;;;;;;34.29;58.62;100341.78;4959475;28;66840;-44
2022/07/18 09:57:38;;;;;;;7.22;6.05;;;;;;;34.29;58.81;100336.31;4959556;28;69538;-36
2022/07/18 10:00:09;;;;;;;6.93;6.10;;;;;;;34.26;58.78;100336.84;4960927;28;66460;-40
2022/07/18 10:02:40;;;;;;;9.32;5.85;;;;;;;34.25;58.96;100346.91;4960761;28;70409;-39
2022/07/18 10:05:11;;;;;;;6.22;5.63;;;;;;;34.23;58.83;100346.34;5028113;28;65767;-38
2022/07/18 10:07:43;;;;;;;8.57;6.57;;;;;;;34.23;58.56;100351.78;4962596;28;70350;-39
2022/07/18 10:10:17;;;;;;;7.88;5.82;;;;;;;34.24;59.19;100353.44;4961756;28;66884;-39
2022/07/18 10:12:50;;;;;;;10.02;7.97;;;;;;;34.24;60.01;100366.22;4959571;28;70146;-36
2022/07/18 10:15:23;;;;;;;12.52;10.45;;;;;;;34.20;61.10;100371.34;4958848;28;66829;-36
2022/07/18 10:17:55;;;;;;;18.27;12.13;;;;;;;34.17;61.48;100366.41;4958833;28;70144;-36
2022/07/18 10:20:33;;;;;;;25.92;13.68;;;;;;;34.16;61.29;100370.22;4960170;28;66325;-35
2022/07/18 10:23:18;;;;;;;17.20;13.77;;;;;;;34.15;61.40;100373.19;4954692;28;70256;-36
2022/07/18 10:26:21;;;;;;;22.98;15.43;;;;;;;33.98;61.66;100373.25;4955205;28;65632;-36
2022/07/18 10:28:56;;;;;;;23.00;16.30;;;;;;;33.94;62.55;100381.09;4949367;28;69841;-34
2022/07/18 10:31:37;;;;;;;22.25;15.55;;;;;;;33.52;63.12;100331.84;4958793;28;65828;-35
2022/07/18 10:34:08;;;;;;;24.50;15.88;;;;;;;33.75;63.38;100385.19;4952912;28;70174;-34
2022/07/18 10:36:51;;;;;;;20.00;16.30;;;;;;;33.67;63.73;100383.72;4957930;28;65751;-36
2022/07/18 10:39:36;;;;;;;20.02;15.95;;;;;;;33.64;64.00;100383.41;4955842;28;70106;-37
2022/07/18 10:42:10;;;;;;;22.00;16.40;;;;;;;33.61;64.62;100373.84;5015516;28;66371;-34
2022/07/18 10:44:41;;;;;;;26.42;18.60;;;;;;;33.58;64.04;100383.34;4961976;28;69599;-34
2022/07/18 10:47:20;;;;;;;28.77;18.23;;;;;;;32.85;64.33;100273.78;4961122;28;65518;-36
2022/07/18 10:49:57;;;;;;;32.80;19.67;;;;;;;33.53;65.43;100390.59;4973817;28;69496;-35
2022/07/18 10:52:32;;;;;;;23.80;18.25;;;;;;;33.55;64.95;100391.19;4958050;28;65486;-35
2022/07/18 10:55:08;;;;;;;28.25;17.52;;;;;;;33.63;64.37;100404.34;4958248;28;70399;-37
2022/07/18 10:57:49;;;;;;;21.73;17.33;;;;;;;33.38;64.29;100364.81;4962927;28;67042;-37
2022/07/18 11:00:23;;;;;;;28.30;17.55;;;;;;;33.76;64.14;100414.84;5028854;28;70040;-38
2022/07/18 11:03:11;;;;;;;27.52;17.58;;;;;;;33.29;64.11;100349.16;4959404;28;65678;-37
2022/07/18 11:05:49;;;;;;;25.08;18.20;;;;;;;33.49;63.87;100376.66;5019518;28;69901;-38
2022/07/18 11:08:24;;;;;;;19.35;16.67;;;;;;;33.88;63.26;100441.97;4963929;28;65571;-38
2022/07/18 11:10:57;;;;;;;23.08;17.17;;;;;;;33.91;63.40;100454.25;5024536;28;70085;-37
2022/07/18 11:13:31;;;;;;;22.13;17.50;;;;;;;33.93;63.10;100457.53;4958512;28;66028;-37
2022/07/18 11:16:09;;;;;;;23.13;17.17;;;;;;;33.92;63.46;100455.88;4949812;28;70228;-38
2022/07/18 11:18:40;;;;;;;19.17;16.08;;;;;;;33.95;63.44;100458.09;4954939;28;67847;-37
2022/07/18 11:21:22;;;;;;;19.33;16.97;;;;;;;33.86;63.69;100446.84;4953916;28;69767;-37
2022/07/18 11:24:14;;;;;;;45.83;18.63;;;;;;;33.85;64.26;100449.78;4953143;28;65604;-38
2022/07/18 11:26:47;;;;;;;41.20;17.47;;;;;;;33.93;63.64;100457.53;4960766;28;70157;-38
2022/07/18 11:29:20;;;;;;;34.83;17.65;;;;;;;33.97;63.35;100464.94;5025377;28;66056;-37
2022/07/18 11:31:52;;;;;;;25.35;17.52;;;;;;;33.99;63.39;100470.13;4959308;28;70362;-37
2022/07/18 11:34:24;;;;;;;32.10;17.95;;;;;;;33.98;63.58;100460.31;4959768;28;66738;-37
2022/07/18 11:37:17;;;;;;;31.48;18.30;;;;;;;33.96;63.56;100448.84;4958749;28;69446;-35
2022/07/18 11:39:48;;;;;;;27.50;18.52;;;;;;;33.95;63.66;100452.66;5023452;28;65679;-37
2022/07/18 11:42:38;;;;;;;25.40;18.55;;;;;;;33.87;63.68;100469.41;4959367;28;69495;-37
2022/07/18 11:45:15;;;;;;;33.03;18.75;;;;;;;33.96;63.62;100465.19;4956142;28;66820;-39
2022/07/18 11:47:51;;;;;;;31.73;17.92;;;;;;;33.74;63.64;100446.94;5021228;28;70733;-38
2022/07/18 11:50:36;;;;;;;31.38;18.52;;;;;;;33.84;63.71;100470.75;5004569;28;65875;-38
2022/07/18 11:53:09;;;;;;;30.83;19.02;;;;;;;33.96;63.48;100484.22;4959235;28;70465;-39